Time;durP1;ratioP1;P1;durP2;ratioP2;P2;SDS_P1;SDS_P2;PMS_P1;PMS_P2;Temp;Humidity;BMP_temperature;BMP_pressure;BME280_temperature;BME280_humidity;BME280_pressure;Samples;Min_cycle;Max_cycle;Signal;HPM_P1;HPM_P2
2023/10/03 00:00:24;;;;;;;32.53;24.25;;;19.00;72.20;;;;;;5055974;28;20025;-67
2023/10/03 00:02:55;;;;;;;33.35;24.00;;;18.90;72.30;;;;;;5055915;28;20060;-67
2023/10/03 00:05:24;;;;;;;30.33;23.15;;;18.80;72.60;;;;;;5056223;28;20036;-67
2023/10/03 00:07:52;;;;;;;30.40;22.88;;;18.70;72.70;;;;;;5056069;28;20402;-67
2023/10/03 00:10:18;;;;;;;30.80;23.02;;;18.60;72.80;;;;;;5055122;28;20021;-68
2023/10/03 00:12:50;;;;;;;33.47;24.38;;;18.50;72.90;;;;;;5054953;28;20017;-68
2023/10/03 00:15:21;;;;;;;26.77;22.50;;;18.40;73.10;;;;;;5056001;28;20031;-67
2023/10/03 00:17:49;;;;;;;30.80;23.20;;;18.30;73.40;;;;;;5055875;28;20036;-67
2023/10/03 00:20:18;;;;;;;29.23;23.23;;;18.30;73.60;;;;;;5055633;28;20029;-67
2023/10/03 00:22:46;;;;;;;31.27;23.88;;;18.20;73.70;;;;;;5055830;28;20040;-67
2023/10/03 00:25:23;;;;;;;32.90;24.83;;;18.10;73.80;;;;;;5056159;28;20021;-67
2023/10/03 00:27:55;;;;;;;36.30;25.88;;;18.00;74.00;;;;;;5055454;28;20113;-67
2023/10/03 00:30:27;;;;;;;30.33;23.67;;;18.00;74.20;;;;;;5055789;28;20021;-67
2023/10/03 00:32:56;;;;;;;31.42;24.23;;;18.00;74.40;;;;;;5055756;28;20033;-67
2023/10/03 00:35:24;;;;;;;31.75;22.98;;;18.00;74.30;;;;;;5054475;28;20327;-67
2023/10/03 00:37:52;;;;;;;35.13;28.45;;;18.00;74.30;;;;;;5061667;28;20044;-67
2023/10/03 00:42:51;;;;;;;34.78;24.20;;;17.80;74.30;;;;;;5075292;28;20032;-67
2023/10/03 00:45:24;;;;;;;33.55;23.92;;;17.60;74.50;;;;;;5075294;28;20029;-67
2023/10/03 00:47:53;;;;;;;31.83;23.73;;;17.60;74.70;;;;;;5075237;28;20365;-67
2023/10/03 00:50:20;;;;;;;32.55;25.30;;;17.60;74.90;;;;;;5075221;28;20031;-67
2023/10/03 00:52:59;;;;;;;31.92;24.08;;;17.60;74.90;;;;;;5075319;28;20040;-67
2023/10/03 00:55:29;;;;;;;30.25;23.15;;;17.60;74.80;;;;;;5075617;28;20029;-67
2023/10/03 00:58:06;;;;;;;32.45;23.55;;;17.60;74.90;;;;;;5075714;28;20024;-67
2023/10/03 01:00:41;;;;;;;35.47;25.45;;;17.60;74.90;;;;;;5075162;28;20070;-67
2023/10/03 01:05:33;;;;;;;35.28;24.88;;;17.60;75.10;;;;;;5075432;28;20337;-67
2023/10/03 01:08:07;;;;;;;35.70;25.83;;;17.60;75.00;;;;;;5075060;28;20021;-67
2023/10/03 01:10:33;;;;;;;34.60;27.10;;;17.60;75.00;;;;;;5075078;28;20069;-67
2023/10/03 01:13:09;;;;;;;30.15;23.88;;;17.60;74.70;;;;;;5057421;28;20452;-67
2023/10/03 01:15:46;;;;;;;33.42;25.30;;;17.60;74.80;;;;;;5075013;28;20028;-67
2023/10/03 01:18:20;;;;;;;28.98;23.13;;;17.60;74.90;;;;;;5075010;28;20449;-67
2023/10/03 01:21:00;;;;;;;31.42;23.13;;;17.50;74.80;;;;;;5076121;28;20094;-67
2023/10/03 01:23:37;;;;;;;34.00;23.50;;;17.50;74.70;;;;;;5079200;28;20032;-67
2023/10/03 01:26:04;;;;;;;31.88;23.10;;;17.50;74.80;;;;;;5078971;28;20013;-67
2023/10/03 01:28:30;;;;;;;34.42;25.58;;;17.50;74.90;;;;;;5079042;28;20051;-67
2023/10/03 01:30:57;;;;;;;31.70;23.25;;;17.50;75.10;;;;;;5079346;28;20438;-67
2023/10/03 01:33:30;;;;;;;34.92;23.75;;;17.40;75.10;;;;;;5079056;28;20454;-67
2023/10/03 01:36:01;;;;;;;34.83;24.55;;;17.40;75.10;;;;;;5078722;28;20078;-67
2023/10/03 01:38:28;;;;;;;34.70;24.40;;;17.40;75.20;;;;;;5078679;28;20456;-67
2023/10/03 01:41:00;;;;;;;32.78;24.23;;;17.40;75.20;;;;;;5078919;28;20055;-66
2023/10/03 01:43:29;;;;;;;33.53;24.35;;;17.40;75.10;;;;;;5078514;28;20449;-67
2023/10/03 01:46:29;;;;;;;28.98;21.60;;;17.40;75.20;;;;;;5078505;28;20487;-68
2023/10/03 01:48:50;;;;;;;31.00;23.67;;;17.50;75.10;;;;;;5073921;28;20024;-67
2023/10/03 01:53:44;;;;;;;32.20;22.45;;;17.40;74.80;;;;;;5078957;28;20081;-66
2023/10/03 01:56:10;;;;;;;27.95;20.98;;;17.40;74.90;;;;;;5078256;28;20028;-67
2023/10/03 01:58:36;;;;;;;29.52;21.60;;;17.40;74.60;;;;;;5078257;28;20056;-67
2023/10/03 02:03:29;;;;;;;30.30;22.25;;;17.40;74.80;;;;;;5078949;28;20441;-67
2023/10/03 02:05:56;;;;;;;28.33;21.85;;;17.40;74.80;;;;;;5078436;28;20035;-67
2023/10/03 02:08:24;;;;;;;30.67;23.30;;;17.40;75.00;;;;;;5078033;28;20037;-67
2023/10/03 02:10:51;;;;;;;28.45;21.05;;;17.40;74.90;;;;;;5078046;28;20036;-67
2023/10/03 02:13:23;;;;;;;31.60;23.38;;;17.40;75.00;;;;;;5078067;28;20035;-66
2023/10/03 02:15:54;;;;;;;26.33;19.80;;;17.40;74.70;;;;;;5078585;28;20099;-67
2023/10/03 02:18:21;;;;;;;29.63;21.85;;;17.40;74.50;;;;;;5077866;28;20150;-67
2023/10/03 02:20:53;;;;;;;30.67;22.25;;;17.40;74.60;;;;;;5077857;28;20443;-67
2023/10/03 02:23:24;;;;;;;30.65;22.65;;;17.40;74.40;;;;;;5078044;28;20028;-67
2023/10/03 02:25:58;;;;;;;32.33;24.25;;;17.40;74.50;;;;;;5078358;28;20024;-66
2023/10/03 02:28:27;;;;;;;29.80;21.58;;;17.40;74.70;;;;;;5077894;28;20025;-66
2023/10/03 02:30:55;;;;;;;29.55;23.00;;;17.30;74.90;;;;;;5078268;28;20032;-67
2023/10/03 02:33:22;;;;;;;27.23;20.08;;;17.30;74.90;;;;;;5076791;28;20032;-67
2023/10/03 02:35:50;;;;;;;27.38;19.92;;;17.30;75.00;;;;;;5077580;28;20058;-67
2023/10/03 02:38:24;;;;;;;35.42;24.55;;;17.30;74.90;;;;;;5077281;28;20060;-67
2023/10/03 02:40:57;;;;;;;31.25;22.45;;;17.30;74.90;;;;;;5077815;28;20117;-67
2023/10/03 02:43:27;;;;;;;;;;;17.30;75.00;;;;;;5078387;28;20437;-67
2023/10/03 02:45:53;;;;;;;31.08;22.73;;;17.30;76.30;;;;;;5077469;28;19927;-67
2023/10/03 02:48:21;;;;;;;28.73;21.05;;;17.30;75.30;;;;;;5077409;28;20020;-66
2023/10/03 02:51:12;;;;;;;29.25;21.95;;;17.20;75.10;;;;;;5035861;28;20100;-67
2023/10/03 02:53:39;;;;;;;30.67;22.13;;;17.20;75.10;;;;;;5035523;28;20382;-66
2023/10/03 02:56:05;;;;;;;27.85;21.95;;;17.20;75.20;;;;;;5035629;28;20548;-67
2023/10/03 02:58:32;;;;;;;29.95;22.73;;;17.20;75.10;;;;;;5035522;28;20373;-67
2023/10/03 03:01:01;;;;;;;29.92;21.60;;;17.20;75.00;;;;;;5036075;28;20149;-67
2023/10/03 03:03:32;;;;;;;26.50;19.13;;;17.20;74.90;;;;;;5035560;28;20064;-67
2023/10/03 03:06:09;;;;;;;26.42;20.00;;;17.10;74.70;;;;;;5036257;28;20087;-67
2023/10/03 03:08:44;;;;;;;29.10;21.20;;;17.10;74.60;;;;;;5018755;28;20033;-66
2023/10/03 03:11:11;;;;;;;27.70;19.58;;;17.10;74.50;;;;;;5035269;28;20021;-67
2023/10/03 03:13:49;;;;;;;23.48;18.00;;;17.10;74.60;;;;;;5035816;28;20067;-67
2023/10/03 03:16:15;;;;;;;27.17;21.08;;;17.00;74.70;;;;;;5035039;28;20037;-66
2023/10/03 03:18:42;;;;;;;29.30;21.10;;;16.90;74.90;;;;;;5035058;28;20116;-67
2023/10/03 03:21:13;;;;;;;26.95;20.95;;;16.90;75.00;;;;;;5035148;28;20037;-66
2023/10/03 03:23:43;;;;;;;26.95;20.08;;;16.90;75.00;;;;;;5034972;28;20037;-66
2023/10/03 03:26:22;;;;;;;22.90;18.98;;;16.90;74.90;;;;;;5035021;28;20458;-67
2023/10/03 03:28:50;;;;;;;27.75;20.15;;;16.80;74.80;;;;;;5061817;28;20036;-67
2023/10/03 03:31:21;;;;;;;26.48;20.85;;;16.70;75.10;;;;;;5076838;28;20027;-68
2023/10/03 03:33:52;;;;;;;27.58;20.95;;;16.60;75.30;;;;;;5077108;28;20020;-67
2023/10/03 03:36:29;;;;;;;28.98;21.50;;;16.60;75.30;;;;;;5076780;28;20104;-68
2023/10/03 03:39:12;;;;;;;31.08;22.67;;;16.60;75.50;;;;;;5076206;28;20485;-67
2023/10/03 03:41:39;;;;;;;27.70;21.23;;;16.60;75.40;;;;;;5076237;28;20067;-67
2023/10/03 03:44:11;;;;;;;28.05;21.45;;;16.60;75.70;;;;;;5076034;28;20074;-68
2023/10/03 03:46:40;;;;;;;25.40;20.08;;;16.60;75.50;;;;;;5076411;28;20036;-67
2023/10/03 03:49:08;;;;;;;33.75;21.75;;;16.60;75.50;;;;;;5076144;28;20031;-67
2023/10/03 03:51:46;;;;;;;26.30;20.88;;;16.60;75.60;;;;;;5076094;28;20028;-67
2023/10/03 03:54:21;;;;;;;26.80;19.75;;;16.50;75.50;;;;;;5076700;28;20077;-67
2023/10/03 03:56:50;;;;;;;31.50;22.38;;;16.50;75.50;;;;;;5076558;28;20025;-67
2023/10/03 03:59:18;;;;;;;28.40;20.65;;;16.40;75.60;;;;;;5075867;28;20036;-67
2023/10/03 04:01:46;;;;;;;27.20;20.48;;;16.40;75.70;;;;;;5076201;28;20044;-68
2023/10/03 04:04:13;;;;;;;29.20;21.80;;;16.40;75.50;;;;;;5076479;28;20069;-67
2023/10/03 04:06:45;;;;;;;38.55;26.63;;;16.40;75.60;;;;;;5076368;28;20040;-67
2023/10/03 04:09:16;;;;;;;27.02;21.58;;;16.30;75.90;;;;;;5075785;28;20032;-67
2023/10/03 04:11:43;;;;;;;29.35;21.83;;;16.20;76.30;;;;;;5075803;28;20461;-67
2023/10/03 04:14:11;;;;;;;30.77;23.10;;;16.10;76.40;;;;;;5075731;28;20028;-67
2023/10/03 04:16:40;;;;;;;34.50;24.13;;;16.20;76.60;;;;;;5076229;28;20031;-68
2023/10/03 04:19:07;;;;;;;30.48;22.88;;;16.10;76.60;;;;;;5075660;28;20021;-67
2023/10/03 04:21:43;;;;;;;28.90;20.85;;;16.10;76.50;;;;;;5075617;28;20464;-67
2023/10/03 04:24:16;;;;;;;26.85;20.75;;;16.20;76.30;;;;;;5075533;28;20496;-67
2023/10/03 04:26:42;;;;;;;31.38;21.92;;;16.20;76.40;;;;;;5075516;28;20033;-67
2023/10/03 04:29:13;;;;;;;29.00;21.08;;;16.20;76.40;;;;;;5076130;28;20428;-67
2023/10/03 04:31:42;;;;;;;31.55;21.48;;;16.20;76.30;;;;;;5075439;28;20357;-67
2023/10/03 04:34:15;;;;;;;26.48;19.60;;;16.20;76.20;;;;;;5076083;28;20449;-67
2023/10/03 04:36:47;;;;;;;27.90;20.08;;;16.20;76.20;;;;;;5075715;28;20043;-67
2023/10/03 04:39:37;;;;;;;31.70;23.10;;;16.20;76.00;;;;;;5073991;28;20070;-67
2023/10/03 04:42:08;;;;;;;30.45;21.83;;;16.20;75.90;;;;;;5075304;28;20113;-67
2023/10/03 04:44:35;;;;;;;36.15;26.63;;;16.20;75.70;;;;;;5075326;28;20033;-67
2023/10/03 04:47:04;;;;;;;36.45;25.58;;;16.20;75.90;;;;;;5075481;28;20013;-68
2023/10/03 04:49:32;;;;;;;35.80;25.65;;;16.10;76.60;;;;;;5075254;28;20039;-67
2023/10/03 04:52:00;;;;;;;30.85;23.00;;;16.00;76.90;;;;;;5075562;28;20431;-67
2023/10/03 04:54:30;;;;;;;32.88;23.83;;;15.90;76.90;;;;;;5075307;28;20024;-67
2023/10/03 04:57:00;;;;;;;38.25;28.20;;;15.90;76.90;;;;;;5074852;28;20025;-67
2023/10/03 04:59:29;;;;;;;31.60;23.70;;;15.90;77.40;;;;;;5075291;28;20035;-68
2023/10/03 05:01:57;;;;;;;33.50;23.85;;;15.90;77.60;;;;;;5075243;28;20024;-67
2023/10/03 05:04:23;;;;;;;29.80;22.40;;;15.90;77.60;;;;;;5057601;28;20035;-67
2023/10/03 05:06:53;;;;;;;30.80;22.75;;;15.80;77.20;;;;;;5075234;28;20347;-67
2023/10/03 05:11:50;;;;;;;32.00;22.52;;;15.90;77.10;;;;;;5076034;28;20083;-67
2023/10/03 05:14:17;;;;;;;36.33;25.23;;;15.90;77.20;;;;;;5075679;28;20425;-68
2023/10/03 05:16:45;;;;;;;32.53;22.25;;;15.90;77.10;;;;;;5074858;28;20039;-68
2023/10/03 05:19:15;;;;;;;29.45;22.30;;;15.90;77.10;;;;;;5075522;28;20016;-67
2023/10/03 05:21:43;;;;;;;34.78;24.15;;;15.90;76.90;;;;;;5075154;28;20027;-67
2023/10/03 05:24:11;;;;;;;34.38;24.10;;;15.90;76.80;;;;;;5074921;28;20028;-68
2023/10/03 05:26:43;;;;;;;29.35;21.80;;;15.90;76.70;;;;;;5074967;28;20029;-67
2023/10/03 05:29:11;;;;;;;33.15;23.60;;;16.00;76.60;;;;;;5074936;28;20040;-68
2023/10/03 05:31:41;;;;;;;31.33;22.95;;;16.00;76.90;;;;;;5074875;28;20039;-68
2023/10/03 05:34:10;;;;;;;30.83;22.90;;;16.00;76.80;;;;;;5074832;28;20510;-67
2023/10/03 05:36:42;;;;;;;34.17;23.35;;;16.00;77.00;;;;;;5074801;28;20036;-68
2023/10/03 05:39:11;;;;;;;34.08;23.92;;;16.10;76.80;;;;;;5074433;28;20052;-67
2023/10/03 05:41:47;;;;;;;37.33;24.42;;;16.10;77.10;;;;;;5075313;28;20456;-67
2023/10/03 05:44:18;;;;;;;34.20;24.17;;;16.10;77.10;;;;;;5075381;28;20040;-67
2023/10/03 05:46:52;;;;;;;35.38;24.13;;;16.20;77.30;;;;;;5074891;28;20032;-68
2023/10/03 05:49:19;;;;;;;33.28;22.67;;;16.30;77.30;;;;;;5075018;28;20464;-68
2023/10/03 05:51:45;;;;;;;36.08;25.48;;;16.40;77.30;;;;;;5074775;28;20090;-71
2023/10/03 05:54:12;;;;;;;36.38;25.42;;;16.60;77.30;;;;;;5074795;28;20376;-65
2023/10/03 05:56:37;;;;;;;39.00;24.50;;;16.70;77.60;;;;;;5074876;28;20104;-63
2023/10/03 05:59:04;;;;;;;35.15;24.98;;;17.00;77.50;;;;;;5074708;28;20048;-64
2023/10/03 06:01:30;;;;;;;36.38;24.45;;;17.20;77.00;;;;;;5074637;28;20052;-64
2023/10/03 06:03:56;;;;;;;34.85;25.33;;;17.50;77.00;;;;;;5074575;28;20450;-64
2023/10/03 06:06:23;;;;;;;35.40;25.90;;;17.80;76.80;;;;;;5056896;28;20080;-63
2023/10/03 06:08:50;;;;;;;35.65;25.88;;;18.10;76.50;;;;;;5059408;28;20039;-63
2023/10/03 06:11:17;;;;;;;34.63;24.38;;;18.40;76.20;;;;;;5078659;28;20078;-63
2023/10/03 06:13:44;;;;;;;31.63;24.73;;;18.70;75.70;;;;;;5078073;28;20501;-63
2023/10/03 06:16:17;;;;;;;43.25;26.35;;;19.00;75.20;;;;;;5078288;28;20368;-62
2023/10/03 06:23:46;;;;;;;30.85;24.40;;;20.00;73.50;;;;;;5078399;28;20033;-62
2023/10/03 06:26:18;;;;;;;32.58;25.48;;;20.20;72.60;;;;;;5077758;28;20108;-62
2023/10/03 06:28:50;;;;;;;33.75;26.23;;;20.40;72.60;;;;;;5077657;28;20449;-62
2023/10/03 06:31:17;;;;;;;32.97;23.88;;;20.60;72.00;;;;;;5078345;28;20013;-62
2023/10/03 06:33:44;;;;;;;32.47;24.13;;;20.80;71.70;;;;;;5060090;28;20029;-61
2023/10/03 06:36:11;;;;;;;32.75;23.42;;;20.90;71.30;;;;;;5077911;28;20024;-61
2023/10/03 06:38:38;;;;;;;30.80;23.75;;;21.10;71.20;;;;;;5077415;28;20052;-61
2023/10/03 06:41:07;;;;;;;41.42;25.92;;;21.40;71.30;;;;;;5059919;28;20115;-61
2023/10/03 06:43:33;;;;;;;31.75;24.20;;;21.60;70.90;;;;;;5077404;28;20093;-61
2023/10/03 06:46:00;;;;;;;30.55;22.92;;;21.90;69.40;;;;;;5077495;28;20025;-61
2023/10/03 06:48:26;;;;;;;32.10;23.65;;;22.00;68.70;;;;;;5077461;28;20424;-61
2023/10/03 06:50:53;;;;;;;28.25;22.30;;;22.10;68.50;;;;;;5060309;28;20023;-61
2023/10/03 06:53:19;;;;;;;34.97;25.80;;;22.20;69.00;;;;;;5077373;28;20036;-62
2023/10/03 06:55:45;;;;;;;30.73;23.48;;;22.40;69.00;;;;;;5077269;28;20024;-62
2023/10/03 06:58:12;;;;;;;32.70;24.50;;;22.60;69.10;;;;;;5077347;28;20042;-62
2023/10/03 07:00:38;;;;;;;32.33;24.17;;;22.80;68.80;;;;;;5077445;28;20116;-62
2023/10/03 07:03:04;;;;;;;28.35;21.92;;;22.90;67.80;;;;;;5077141;28;20029;-62
2023/10/03 07:05:32;;;;;;;29.70;22.88;;;23.00;67.90;;;;;;5077388;28;20065;-62
2023/10/03 07:07:58;;;;;;;27.63;22.20;;;23.10;67.20;;;;;;5077176;28;20092;-61
2023/10/03 07:10:27;;;;;;;47.17;22.77;;;23.10;66.80;;;;;;5076987;28;20016;-62
2023/10/03 07:12:53;;;;;;;30.20;22.42;;;23.10;66.90;;;;;;5076911;28;20074;-62
2023/10/03 07:15:19;;;;;;;25.63;19.95;;;23.30;67.00;;;;;;5076902;28;20028;-62
2023/10/03 07:17:45;;;;;;;29.33;21.27;;;23.40;66.50;;;;;;5076918;28;20028;-62
2023/10/03 07:20:12;;;;;;;29.38;21.13;;;23.40;66.60;;;;;;5076539;28;20033;-61
2023/10/03 07:22:39;;;;;;;24.80;19.88;;;23.50;66.20;;;;;;5076663;28;20093;-61
2023/10/03 07:25:08;;;;;;;26.65;18.83;;;23.60;66.00;;;;;;5076767;28;20012;-62
2023/10/03 07:27:36;;;;;;;26.33;20.27;;;23.70;65.30;;;;;;5076651;28;20102;-61
2023/10/03 07:30:03;;;;;;;24.98;17.10;;;23.70;65.30;;;;;;5076862;28;20020;-61
2023/10/03 07:32:34;;;;;;;23.52;15.75;;;23.70;61.50;;;;;;5076619;28;20024;-61
2023/10/03 07:35:02;;;;;;;25.70;16.75;;;23.70;61.80;;;;;;5076508;28;20031;-61
2023/10/03 07:37:28;;;;;;;24.27;15.23;;;23.70;62.20;;;;;;5075996;28;20063;-62
2023/10/03 07:39:55;;;;;;;21.00;14.98;;;23.70;61.80;;;;;;5076768;28;20112;-62
2023/10/03 07:42:23;;;;;;;24.10;15.90;;;23.70;61.90;;;;;;5076560;28;20039;-62
2023/10/03 07:44:52;;;;;;;23.02;14.02;;;23.80;62.00;;;;;;5076293;28;20025;-61
2023/10/03 07:47:20;;;;;;;25.67;16.02;;;23.90;62.40;;;;;;5076178;28;20035;-62
2023/10/03 07:49:48;;;;;;;21.55;15.45;;;23.90;61.40;;;;;;5076194;28;20353;-62
2023/10/03 07:52:17;;;;;;;20.60;14.88;;;23.90;61.00;;;;;;5076150;28;20461;-62
2023/10/03 07:54:54;;;;;;;22.48;14.07;;;24.00;61.00;;;;;;5076166;28;20028;-63
2023/10/03 07:57:25;;;;;;;24.20;15.45;;;24.00;61.00;;;;;;5076025;28;20032;-63
2023/10/03 07:59:54;;;;;;;25.92;16.75;;;24.00;60.60;;;;;;5075963;28;20020;-63
2023/10/03 08:02:32;;;;;;;23.58;16.20;;;24.10;60.40;;;;;;5075968;28;20028;-63
2023/10/03 08:05:02;;;;;;;22.50;14.98;;;24.20;60.50;;;;;;5076211;28;20460;-63
2023/10/03 08:07:29;;;;;;;24.67;16.20;;;24.20;60.30;;;;;;5076099;28;20024;-64
2023/10/03 08:10:02;;;;;;;20.83;14.70;;;24.30;59.40;;;;;;5075822;28;20039;-64
2023/10/03 08:12:37;;;;;;;22.80;15.50;;;24.30;59.50;;;;;;5075848;28;20453;-63
2023/10/03 08:15:16;;;;;;;24.95;15.63;;;24.40;59.60;;;;;;5075785;28;20028;-63
2023/10/03 08:17:44;;;;;;;28.40;18.58;;;24.40;59.90;;;;;;5075867;28;20149;-63
2023/10/03 08:20:14;;;;;;;19.67;13.82;;;24.50;57.70;;;;;;5075716;28;20107;-63
2023/10/03 08:22:42;;;;;;;20.65;14.00;;;24.50;59.40;;;;;;5075528;28;20044;-64
2023/10/03 08:25:10;;;;;;;20.45;14.88;;;24.60;59.30;;;;;;5075674;28;20020;-63
2023/10/03 08:27:36;;;;;;;20.98;14.80;;;24.60;59.50;;;;;;5075580;28;20025;-63
2023/10/03 08:30:03;;;;;;;21.75;14.63;;;24.70;59.40;;;;;;5075528;28;20021;-63
2023/10/03 08:32:32;;;;;;;21.40;15.80;;;24.70;59.30;;;;;;5075576;28;20060;-63
2023/10/03 08:37:23;;;;;;;21.60;15.70;;;24.60;59.30;;;;;;5075770;28;20025;-63
2023/10/03 08:39:51;;;;;;;23.38;17.33;;;24.60;59.50;;;;;;5075559;28;20028;-64
2023/10/03 08:42:36;;;;;;;24.35;17.55;;;24.40;59.30;;;;;;5075663;28;20029;-64
2023/10/03 08:45:16;;;;;;;24.60;17.58;;;24.40;59.60;;;;;;5075729;28;20029;-63
2023/10/03 08:47:49;;;;;;;23.85;15.88;;;24.40;59.90;;;;;;5075619;28;20020;-64
2023/10/03 08:50:29;;;;;;;25.63;17.43;;;24.50;59.70;;;;;;5075773;28;20039;-63
2023/10/03 08:52:56;;;;;;;20.10;15.10;;;24.40;59.40;;;;;;5075440;28;20464;-63
2023/10/03 08:55:26;;;;;;;19.83;14.35;;;24.40;59.80;;;;;;5075621;28;20027;-63
2023/10/03 08:57:53;;;;;;;20.55;14.30;;;24.60;59.90;;;;;;5075517;28;20032;-63
2023/10/03 09:00:25;;;;;;;20.73;14.55;;;24.60;59.90;;;;;;5075280;28;20020;-63
2023/10/03 09:05:19;;;;;;;22.25;16.70;;;24.70;59.10;;;;;;5075881;28;20029;-63
2023/10/03 09:07:48;;;;;;;22.35;16.38;;;24.70;59.20;;;;;;5075440;28;20035;-63
2023/10/03 09:10:25;;;;;;;23.15;17.35;;;24.70;59.30;;;;;;5075216;28;20369;-63
2023/10/03 09:13:14;;;;;;;22.98;16.90;;;24.70;59.40;;;;;;5075750;28;20025;-63
2023/10/03 09:15:42;;;;;;;21.30;15.77;;;24.70;59.40;;;;;;5075128;28;20104;-63
2023/10/03 09:18:15;;;;;;;19.92;14.40;;;24.80;59.40;;;;;;5075002;28;20457;-63
2023/10/03 09:20:42;;;;;;;21.30;15.55;;;24.80;59.60;;;;;;5075028;28;20086;-63
2023/10/03 09:23:14;;;;;;;21.55;15.52;;;24.90;59.80;;;;;;5075294;28;20070;-63
2023/10/03 09:25:42;;;;;;;23.35;16.63;;;24.90;59.60;;;;;;5075008;28;20021;-63
2023/10/03 09:28:09;;;;;;;24.10;16.92;;;24.90;59.70;;;;;;5075230;28;20020;-63
2023/10/03 09:30:37;;;;;;;20.20;15.80;;;24.90;58.80;;;;;;5074911;28;20024;-63
2023/10/03 09:33:08;;;;;;;20.38;15.10;;;24.90;59.10;;;;;;5074859;28;20024;-63
2023/10/03 09:35:39;;;;;;;21.58;16.67;;;24.90;59.30;;;;;;5057152;28;20339;-63
2023/10/03 09:38:17;;;;;;;25.55;18.70;;;24.90;59.10;;;;;;5073319;28;20055;-63
2023/10/03 09:40:49;;;;;;;30.17;20.95;;;24.90;59.20;;;;;;5075081;28;20028;-63
2023/10/03 09:43:19;;;;;;;22.08;16.17;;;24.90;59.10;;;;;;5078139;28;20115;-63
2023/10/03 09:45:47;;;;;;;23.10;17.00;;;24.90;59.10;;;;;;5078952;28;20035;-63
2023/10/03 09:48:24;;;;;;;23.00;16.30;;;25.00;59.20;;;;;;5078456;28;20396;-63
2023/10/03 09:51:05;;;;;;;23.42;17.20;;;25.00;58.80;;;;;;5078445;28;20445;-63
2023/10/03 09:53:36;;;;;;;21.08;15.50;;;25.00;58.80;;;;;;5078699;28;20028;-63
2023/10/03 09:56:08;;;;;;;20.95;14.90;;;25.00;58.90;;;;;;5078463;28;20086;-63
2023/10/03 09:58:35;;;;;;;21.80;16.17;;;25.10;59.00;;;;;;5078322;28;20029;-63
2023/10/03 10:01:06;;;;;;;23.02;17.20;;;25.10;57.80;;;;;;5078379;28;20033;-63
2023/10/03 10:03:46;;;;;;;30.08;19.20;;;25.20;57.60;;;;;;5078395;28;20107;-63
2023/10/03 10:06:37;;;;;;;27.63;20.38;;;25.20;57.40;;;;;;5078245;28;20364;-63
2023/10/03 10:09:14;;;;;;;25.70;19.13;;;25.20;56.10;;;;;;5060636;28;20028;-63
2023/10/03 10:12:11;;;;;;;22.85;18.60;;;25.20;56.80;;;;;;5078977;28;20033;-63
2023/10/03 10:15:00;;;;;;;22.70;16.38;;;25.20;56.30;;;;;;5078125;28;20031;-63
2023/10/03 10:17:45;;;;;;;22.80;17.88;;;25.30;56.80;;;;;;5060336;28;20037;-63
2023/10/03 10:20:32;;;;;;;24.05;17.27;;;25.20;57.30;;;;;;5078239;28;20024;-63
2023/10/03 10:23:03;;;;;;;25.00;19.40;;;25.30;57.30;;;;;;5077904;28;20029;-63
2023/10/03 10:25:51;;;;;;;22.52;17.35;;;25.20;57.40;;;;;;5078205;28;20032;-63
2023/10/03 10:28:26;;;;;;;20.92;15.73;;;25.20;57.20;;;;;;5078426;28;20021;-63
2023/10/03 10:31:10;;;;;;;24.45;17.60;;;25.10;57.00;;;;;;5077803;28;20025;-63
2023/10/03 10:33:40;;;;;;;24.23;18.15;;;25.20;56.90;;;;;;5078061;28;20039;-63
2023/10/03 10:36:10;;;;;;;23.50;16.83;;;25.20;56.80;;;;;;5078597;28;20124;-63
2023/10/03 10:38:41;;;;;;;22.35;15.88;;;25.30;56.60;;;;;;5077498;28;20064;-63
2023/10/03 10:44:13;;;;;;;23.58;17.48;;;25.10;56.50;;;;;;5077595;28;20032;-63
2023/10/03 10:46:47;;;;;;;21.00;15.02;;;25.10;56.50;;;;;;5077434;28;20033;-64
2023/10/03 10:49:31;;;;;;;22.10;15.82;;;25.10;56.90;;;;;;5078059;28;20044;-63
2023/10/03 10:52:12;;;;;;;24.52;18.63;;;25.20;57.30;;;;;;5077498;28;20028;-63
2023/10/03 10:54:43;;;;;;;27.05;20.55;;;25.30;57.10;;;;;;5077341;28;20506;-63
2023/10/03 10:57:18;;;;;;;23.55;16.83;;;25.40;56.40;;;;;;5077201;28;20029;-63
2023/10/03 10:59:45;;;;;;;21.48;15.60;;;25.40;56.90;;;;;;5077268;28;20314;-63
2023/10/03 11:02:26;;;;;;;22.17;16.52;;;25.50;56.80;;;;;;5077456;28;20052;-63
2023/10/03 11:04:59;;;;;;;24.40;17.20;;;25.50;56.60;;;;;;5077036;28;20353;-63
2023/10/03 11:07:29;;;;;;;22.17;17.33;;;25.40;56.60;;;;;;5077068;28;20032;-63
2023/10/03 11:10:04;;;;;;;25.02;17.92;;;25.40;57.10;;;;;;5078547;28;20021;-63
2023/10/03 11:12:35;;;;;;;25.15;18.90;;;25.40;57.20;;;;;;5077024;28;20507;-63
2023/10/03 11:15:12;;;;;;;24.98;17.95;;;25.20;57.20;;;;;;5076920;28;20040;-63
2023/10/03 11:20:08;;;;;;;23.20;17.00;;;25.20;57.00;;;;;;5077663;28;20414;-63
2023/10/03 11:22:40;;;;;;;21.50;16.75;;;25.30;57.10;;;;;;5077057;28;20032;-63
2023/10/03 11:25:10;;;;;;;23.73;16.70;;;25.20;56.50;;;;;;5077084;28;20020;-63
2023/10/03 11:27:41;;;;;;;26.60;16.45;;;25.20;56.30;;;;;;5076964;28;20337;-63
2023/10/03 11:30:27;;;;;;;22.92;16.27;;;25.20;56.20;;;;;;5076695;28;20438;-63
2023/10/03 11:33:03;;;;;;;22.98;16.02;;;25.30;55.50;;;;;;5076637;28;20421;-63
2023/10/03 11:35:29;;;;;;;23.42;16.10;;;25.30;55.00;;;;;;5077209;28;20430;-63
2023/10/03 11:37:55;;;;;;;17.30;14.02;;;25.40;55.40;;;;;;5076248;28;20102;-63
2023/10/03 11:40:27;;;;;;;21.55;15.98;;;25.40;55.50;;;;;;5076450;28;20482;-63
2023/10/03 11:43:02;;;;;;;22.15;17.70;;;25.40;54.80;;;;;;5076591;28;20103;-63
2023/10/03 11:45:29;;;;;;;22.08;15.45;;;25.40;55.20;;;;;;5076310;28;20021;-63
2023/10/03 11:48:10;;;;;;;25.25;19.27;;;25.50;55.40;;;;;;5076478;28;20015;-63
2023/10/03 11:50:39;;;;;;;22.42;17.00;;;25.60;55.30;;;;;;5076203;28;20090;-63
2023/10/03 11:53:09;;;;;;;23.02;18.10;;;25.70;55.40;;;;;;5076139;28;20021;-63
2023/10/03 11:55:40;;;;;;;24.65;17.85;;;25.70;55.20;;;;;;5076710;28;20107;-63
2023/10/03 11:58:16;;;;;;;23.85;16.65;;;25.80;55.20;;;;;;5075929;28;20028;-63
2023/10/03 12:00:45;;;;;;;23.77;17.70;;;25.80;55.30;;;;;;5076624;28;20031;-63
2023/10/03 12:03:11;;;;;;;28.25;18.42;;;25.80;55.00;;;;;;5075829;28;20075;-63
2023/10/03 12:05:45;;;;;;;25.75;20.42;;;25.80;55.00;;;;;;5075331;28;20051;-64
2023/10/03 12:08:13;;;;;;;18.73;15.43;;;25.70;55.50;;;;;;5075866;28;20031;-63
2023/10/03 12:10:41;;;;;;;21.10;16.45;;;25.70;55.60;;;;;;5076426;28;20028;-63
2023/10/03 12:13:15;;;;;;;24.80;20.27;;;25.90;55.60;;;;;;5076130;28;20025;-64
2023/10/03 12:15:44;;;;;;;22.80;16.05;;;25.90;55.60;;;;;;5075971;28;20056;-64
2023/10/03 12:18:11;;;;;;;20.95;15.68;;;26.00;55.50;;;;;;5075864;28;20055;-64
2023/10/03 12:23:04;;;;;;;21.58;17.90;;;26.10;55.20;;;;;;5076245;28;20315;-63
2023/10/03 12:25:34;;;;;;;21.65;16.83;;;26.20;55.20;;;;;;5075644;28;20101;-63
2023/10/03 12:28:07;;;;;;;25.25;19.00;;;26.20;55.10;;;;;;5076167;28;20145;-63
2023/10/03 12:30:34;;;;;;;26.70;19.45;;;26.20;54.50;;;;;;5075608;28;20028;-64
2023/10/03 12:33:02;;;;;;;29.67;20.83;;;26.00;54.70;;;;;;5075620;28;20378;-63
2023/10/03 12:35:28;;;;;;;28.10;20.65;;;25.90;54.60;;;;;;5057957;28;20433;-63
2023/10/03 12:37:58;;;;;;;28.05;22.60;;;25.90;55.10;;;;;;5074639;28;20063;-63
2023/10/03 12:40:31;;;;;;;31.13;24.58;;;25.80;55.20;;;;;;5076018;28;20111;-63
2023/10/03 12:42:58;;;;;;;31.00;23.05;;;25.80;55.10;;;;;;5075446;28;20020;-63
2023/10/03 12:45:28;;;;;;;26.90;20.88;;;25.80;55.00;;;;;;5075504;28;20055;-63
2023/10/03 12:48:03;;;;;;;26.63;20.63;;;25.80;55.30;;;;;;5075371;28;20043;-64
2023/10/03 12:50:29;;;;;;;26.65;19.70;;;25.90;55.30;;;;;;5075171;28;20025;-63
2023/10/03 12:52:58;;;;;;;24.40;19.38;;;25.90;55.40;;;;;;5075464;28;20040;-63
2023/10/03 12:55:26;;;;;;;24.98;18.88;;;25.90;55.60;;;;;;5075839;28;20029;-63
2023/10/03 12:57:55;;;;;;;33.75;25.40;;;26.00;55.50;;;;;;5075186;28;20457;-63
2023/10/03 13:00:23;;;;;;;29.67;23.45;;;26.20;55.40;;;;;;5075549;28;20032;-62
2023/10/03 13:02:51;;;;;;;25.00;19.58;;;26.30;55.00;;;;;;5075138;28;20426;-62
2023/10/03 13:05:21;;;;;;;25.35;20.52;;;26.40;54.80;;;;;;5075765;28;20021;-63
2023/10/03 13:07:48;;;;;;;28.67;20.40;;;26.40;54.70;;;;;;5075071;28;20025;-63
2023/10/03 13:10:18;;;;;;;25.15;20.38;;;26.50;54.50;;;;;;5075423;28;20028;-63
2023/10/03 13:12:49;;;;;;;31.05;21.67;;;26.60;54.50;;;;;;5057554;28;20063;-63
2023/10/03 13:15:19;;;;;;;28.77;21.95;;;26.60;54.40;;;;;;5075404;28;20074;-63